Terminal Aerodrome Forecast
Issued by NWS

Home | Current Version | Previous Version | Text Only | Print | Product List | Glossary On
Versions: 1 2 3 4 5 6 7 8 9 10 11 12 13 14 15 16 17 18 19 20 21 22 23 24 25 26 27 28 29 30
000
FTUS43 KSGF 221500 AAC
TAFJLN
TAF AMD
KJLN 221540Z 2216/2312 15010KT 3SM -DZ BR OVC006
     FM221700 21014G20KT 5SM -DZ BR VCSH OVC008
     FM222200 24014G20KT P6SM OVC015
     FM230100 24013KT P6SM BKN025
     FM230400 26010KT P6SM SCT025=

USA.gov is the U.S. government's official web portal to all federal, state and local government web resources and services.